sensor_id;sensor_type;location;lat;lon;timestamp;P1;durP1;ratioP1;P2;durP2;ratioP2
12681;SDS011;6405;59.208;18.216;2023-07-31T00:00:14;7.17;;;6.47;;
12681;SDS011;6405;59.208;18.216;2023-07-31T00:02:40;7.20;;;6.00;;
12681;SDS011;6405;59.208;18.216;2023-07-31T00:05:07;7.27;;;6.50;;
12681;SDS011;6405;59.208;18.216;2023-07-31T00:07:34;7.30;;;6.60;;
12681;SDS011;6405;59.208;18.216;2023-07-31T00:10:00;7.03;;;6.33;;
12681;SDS011;6405;59.208;18.216;2023-07-31T00:12:26;6.87;;;6.27;;
12681;SDS011;6405;59.208;18.216;2023-07-31T00:14:52;6.80;;;6.00;;
12681;SDS011;6405;59.208;18.216;2023-07-31T00:17:17;9.47;;;5.90;;
12681;SDS011;6405;59.208;18.216;2023-07-31T00:19:43;6.77;;;5.90;;
12681;SDS011;6405;59.208;18.216;2023-07-31T00:22:11;7.50;;;6.50;;
12681;SDS011;6405;59.208;18.216;2023-07-31T00:24:37;6.47;;;5.87;;
12681;SDS011;6405;59.208;18.216;2023-07-31T00:27:03;6.87;;;6.23;;
12681;SDS011;6405;59.208;18.216;2023-07-31T00:29:29;9.03;;;6.10;;
12681;SDS011;6405;59.208;18.216;2023-07-31T00:31:54;6.60;;;5.73;;
12681;SDS011;6405;59.208;18.216;2023-07-31T00:34:20;8.37;;;6.13;;
12681;SDS011;6405;59.208;18.216;2023-07-31T00:36:46;9.17;;;6.27;;
12681;SDS011;6405;59.208;18.216;2023-07-31T00:39:12;6.10;;;5.50;;
12681;SDS011;6405;59.208;18.216;2023-07-31T00:41:37;7.90;;;6.20;;
12681;SDS011;6405;59.208;18.216;2023-07-31T00:44:03;11.30;;;6.97;;
12681;SDS011;6405;59.208;18.216;2023-07-31T00:46:29;7.43;;;6.20;;
12681;SDS011;6405;59.208;18.216;2023-07-31T00:48:55;6.93;;;6.23;;
12681;SDS011;6405;59.208;18.216;2023-07-31T00:51:21;6.97;;;6.37;;
12681;SDS011;6405;59.208;18.216;2023-07-31T00:53:47;7.30;;;6.60;;
12681;SDS011;6405;59.208;18.216;2023-07-31T00:56:13;8.00;;;6.30;;
12681;SDS011;6405;59.208;18.216;2023-07-31T00:58:39;6.67;;;5.97;;
12681;SDS011;6405;59.208;18.216;2023-07-31T01:01:05;9.00;;;6.13;;
12681;SDS011;6405;59.208;18.216;2023-07-31T01:03:31;6.93;;;5.80;;
12681;SDS011;6405;59.208;18.216;2023-07-31T01:06:02;6.37;;;5.63;;
12681;SDS011;6405;59.208;18.216;2023-07-31T01:08:49;6.77;;;5.93;;
12681;SDS011;6405;59.208;18.216;2023-07-31T01:11:31;6.20;;;5.60;;
12681;SDS011;6405;59.208;18.216;2023-07-31T01:14:00;6.67;;;5.93;;
12681;SDS011;6405;59.208;18.216;2023-07-31T01:16:26;7.00;;;6.17;;
12681;SDS011;6405;59.208;18.216;2023-07-31T01:18:52;6.07;;;5.47;;
12681;SDS011;6405;59.208;18.216;2023-07-31T01:21:23;6.60;;;5.50;;
12681;SDS011;6405;59.208;18.216;2023-07-31T01:24:43;6.37;;;5.77;;
12681;SDS011;6405;59.208;18.216;2023-07-31T01:27:30;5.83;;;5.27;;
12681;SDS011;6405;59.208;18.216;2023-07-31T01:30:16;6.37;;;5.73;;
12681;SDS011;6405;59.208;18.216;2023-07-31T01:32:46;6.50;;;5.90;;
12681;SDS011;6405;59.208;18.216;2023-07-31T01:35:13;7.20;;;6.33;;
12681;SDS011;6405;59.208;18.216;2023-07-31T01:37:40;8.43;;;5.90;;
12681;SDS011;6405;59.208;18.216;2023-07-31T01:40:05;6.73;;;5.87;;
12681;SDS011;6405;59.208;18.216;2023-07-31T01:42:32;7.57;;;5.77;;
12681;SDS011;6405;59.208;18.216;2023-07-31T01:44:57;6.43;;;5.83;;
12681;SDS011;6405;59.208;18.216;2023-07-31T01:47:23;7.00;;;6.30;;
12681;SDS011;6405;59.208;18.216;2023-07-31T01:49:49;7.47;;;6.17;;
12681;SDS011;6405;59.208;18.216;2023-07-31T01:52:15;6.60;;;6.00;;
12681;SDS011;6405;59.208;18.216;2023-07-31T01:54:40;7.90;;;6.13;;
12681;SDS011;6405;59.208;18.216;2023-07-31T01:57:06;6.73;;;6.13;;
12681;SDS011;6405;59.208;18.216;2023-07-31T01:59:32;6.80;;;6.10;;
12681;SDS011;6405;59.208;18.216;2023-07-31T02:01:58;6.60;;;6.00;;
12681;SDS011;6405;59.208;18.216;2023-07-31T02:04:23;6.73;;;6.03;;
12681;SDS011;6405;59.208;18.216;2023-07-31T02:06:49;6.87;;;6.07;;
12681;SDS011;6405;59.208;18.216;2023-07-31T02:09:15;9.57;;;5.87;;
12681;SDS011;6405;59.208;18.216;2023-07-31T02:11:40;7.63;;;6.10;;
12681;SDS011;6405;59.208;18.216;2023-07-31T02:14:06;6.50;;;5.97;;
12681;SDS011;6405;59.208;18.216;2023-07-31T02:16:32;6.53;;;5.83;;
12681;SDS011;6405;59.208;18.216;2023-07-31T02:18:58;6.63;;;5.93;;
12681;SDS011;6405;59.208;18.216;2023-07-31T02:21:23;7.17;;;6.47;;
12681;SDS011;6405;59.208;18.216;2023-07-31T02:23:49;5.90;;;5.13;;
12681;SDS011;6405;59.208;18.216;2023-07-31T02:26:15;5.97;;;5.37;;
12681;SDS011;6405;59.208;18.216;2023-07-31T02:28:41;6.27;;;5.70;;
12681;SDS011;6405;59.208;18.216;2023-07-31T02:31:08;6.50;;;5.57;;
12681;SDS011;6405;59.208;18.216;2023-07-31T02:33:34;6.13;;;5.50;;
12681;SDS011;6405;59.208;18.216;2023-07-31T02:35:59;6.43;;;5.73;;
12681;SDS011;6405;59.208;18.216;2023-07-31T02:38:25;5.73;;;4.97;;
12681;SDS011;6405;59.208;18.216;2023-07-31T02:40:51;6.20;;;5.60;;
12681;SDS011;6405;59.208;18.216;2023-07-31T02:43:17;6.13;;;5.50;;
12681;SDS011;6405;59.208;18.216;2023-07-31T02:45:43;7.57;;;5.87;;
12681;SDS011;6405;59.208;18.216;2023-07-31T02:48:08;6.20;;;5.60;;
12681;SDS011;6405;59.208;18.216;2023-07-31T02:50:34;6.67;;;5.37;;
12681;SDS011;6405;59.208;18.216;2023-07-31T02:53:00;6.33;;;5.30;;
12681;SDS011;6405;59.208;18.216;2023-07-31T02:55:26;6.30;;;5.70;;
12681;SDS011;6405;59.208;18.216;2023-07-31T02:57:51;6.23;;;5.63;;
12681;SDS011;6405;59.208;18.216;2023-07-31T03:00:17;7.20;;;6.10;;
12681;SDS011;6405;59.208;18.216;2023-07-31T03:02:44;6.20;;;5.60;;
12681;SDS011;6405;59.208;18.216;2023-07-31T03:05:09;6.60;;;5.90;;
12681;SDS011;6405;59.208;18.216;2023-07-31T03:07:35;6.27;;;5.57;;
12681;SDS011;6405;59.208;18.216;2023-07-31T03:10:01;7.17;;;5.77;;
12681;SDS011;6405;59.208;18.216;2023-07-31T03:12:27;6.90;;;6.20;;
12681;SDS011;6405;59.208;18.216;2023-07-31T03:14:53;6.57;;;5.90;;
12681;SDS011;6405;59.208;18.216;2023-07-31T03:17:18;6.93;;;6.23;;
12681;SDS011;6405;59.208;18.216;2023-07-31T03:19:44;6.33;;;5.73;;
12681;SDS011;6405;59.208;18.216;2023-07-31T03:22:10;6.33;;;5.33;;
12681;SDS011;6405;59.208;18.216;2023-07-31T03:24:36;5.93;;;5.20;;
12681;SDS011;6405;59.208;18.216;2023-07-31T03:27:01;5.83;;;5.27;;
12681;SDS011;6405;59.208;18.216;2023-07-31T03:29:27;6.27;;;5.67;;
12681;SDS011;6405;59.208;18.216;2023-07-31T03:31:53;6.40;;;5.80;;
12681;SDS011;6405;59.208;18.216;2023-07-31T03:34:19;8.03;;;5.93;;
12681;SDS011;6405;59.208;18.216;2023-07-31T03:36:44;7.30;;;6.00;;
12681;SDS011;6405;59.208;18.216;2023-07-31T03:39:10;6.53;;;5.50;;
12681;SDS011;6405;59.208;18.216;2023-07-31T03:41:36;9.17;;;5.93;;
12681;SDS011;6405;59.208;18.216;2023-07-31T03:44:02;6.83;;;6.10;;
12681;SDS011;6405;59.208;18.216;2023-07-31T03:46:28;6.93;;;6.20;;
12681;SDS011;6405;59.208;18.216;2023-07-31T03:48:53;9.93;;;7.03;;
12681;SDS011;6405;59.208;18.216;2023-07-31T03:51:19;7.77;;;6.40;;
12681;SDS011;6405;59.208;18.216;2023-07-31T03:53:45;7.87;;;6.07;;
12681;SDS011;6405;59.208;18.216;2023-07-31T03:56:11;6.40;;;5.67;;
12681;SDS011;6405;59.208;18.216;2023-07-31T03:58:37;6.53;;;5.93;;
12681;SDS011;6405;59.208;18.216;2023-07-31T04:01:03;7.27;;;6.20;;
12681;SDS011;6405;59.208;18.216;2023-07-31T04:03:29;6.77;;;6.03;;
12681;SDS011;6405;59.208;18.216;2023-07-31T04:05:55;6.60;;;5.97;;
12681;SDS011;6405;59.208;18.216;2023-07-31T04:08:21;6.50;;;5.90;;
12681;SDS011;6405;59.208;18.216;2023-07-31T04:10:47;8.20;;;6.10;;
12681;SDS011;6405;59.208;18.216;2023-07-31T04:13:13;7.77;;;6.00;;
12681;SDS011;6405;59.208;18.216;2023-07-31T04:15:39;6.87;;;6.17;;
12681;SDS011;6405;59.208;18.216;2023-07-31T04:18:05;8.03;;;6.50;;
12681;SDS011;6405;59.208;18.216;2023-07-31T04:20:31;8.80;;;6.97;;
12681;SDS011;6405;59.208;18.216;2023-07-31T04:22:57;8.73;;;7.00;;
12681;SDS011;6405;59.208;18.216;2023-07-31T04:25:23;7.00;;;6.27;;
12681;SDS011;6405;59.208;18.216;2023-07-31T04:27:49;10.23;;;7.07;;
12681;SDS011;6405;59.208;18.216;2023-07-31T04:30:14;9.23;;;7.20;;
12681;SDS011;6405;59.208;18.216;2023-07-31T04:32:40;7.40;;;6.70;;
12681;SDS011;6405;59.208;18.216;2023-07-31T04:35:06;7.47;;;6.70;;
12681;SDS011;6405;59.208;18.216;2023-07-31T04:37:32;10.13;;;6.70;;
12681;SDS011;6405;59.208;18.216;2023-07-31T04:39:58;7.07;;;6.37;;
12681;SDS011;6405;59.208;18.216;2023-07-31T04:42:23;7.87;;;7.00;;
12681;SDS011;6405;59.208;18.216;2023-07-31T04:44:49;7.80;;;6.90;;
12681;SDS011;6405;59.208;18.216;2023-07-31T04:47:15;7.43;;;6.63;;
12681;SDS011;6405;59.208;18.216;2023-07-31T04:49:41;7.63;;;6.77;;
12681;SDS011;6405;59.208;18.216;2023-07-31T04:52:06;10.23;;;7.67;;
12681;SDS011;6405;59.208;18.216;2023-07-31T04:54:32;10.60;;;8.13;;
12681;SDS011;6405;59.208;18.216;2023-07-31T04:56:58;7.27;;;6.57;;
12681;SDS011;6405;59.208;18.216;2023-07-31T04:59:23;8.43;;;6.90;;
12681;SDS011;6405;59.208;18.216;2023-07-31T05:01:49;8.10;;;6.77;;
12681;SDS011;6405;59.208;18.216;2023-07-31T05:04:15;8.17;;;7.00;;
12681;SDS011;6405;59.208;18.216;2023-07-31T05:06:41;11.50;;;8.80;;
12681;SDS011;6405;59.208;18.216;2023-07-31T05:09:07;10.93;;;8.40;;
12681;SDS011;6405;59.208;18.216;2023-07-31T05:11:34;12.40;;;9.37;;
12681;SDS011;6405;59.208;18.216;2023-07-31T05:14:00;10.10;;;8.20;;
12681;SDS011;6405;59.208;18.216;2023-07-31T05:16:26;11.77;;;9.07;;
12681;SDS011;6405;59.208;18.216;2023-07-31T05:18:52;8.87;;;7.97;;
12681;SDS011;6405;59.208;18.216;2023-07-31T05:21:17;10.93;;;8.77;;
12681;SDS011;6405;59.208;18.216;2023-07-31T05:23:43;9.30;;;8.30;;
12681;SDS011;6405;59.208;18.216;2023-07-31T05:26:09;10.27;;;8.57;;
12681;SDS011;6405;59.208;18.216;2023-07-31T05:28:35;8.03;;;7.23;;
12681;SDS011;6405;59.208;18.216;2023-07-31T05:31:04;8.10;;;7.30;;
12681;SDS011;6405;59.208;18.216;2023-07-31T05:33:30;9.70;;;8.00;;
12681;SDS011;6405;59.208;18.216;2023-07-31T05:35:56;9.50;;;7.50;;
12681;SDS011;6405;59.208;18.216;2023-07-31T05:38:22;8.17;;;7.17;;
12681;SDS011;6405;59.208;18.216;2023-07-31T05:40:48;8.27;;;7.37;;
12681;SDS011;6405;59.208;18.216;2023-07-31T05:43:14;7.83;;;7.03;;
12681;SDS011;6405;59.208;18.216;2023-07-31T05:45:41;8.17;;;7.37;;
12681;SDS011;6405;59.208;18.216;2023-07-31T05:48:07;8.73;;;7.33;;
12681;SDS011;6405;59.208;18.216;2023-07-31T05:50:33;8.43;;;7.50;;
12681;SDS011;6405;59.208;18.216;2023-07-31T05:52:58;9.27;;;8.10;;
12681;SDS011;6405;59.208;18.216;2023-07-31T05:55:24;8.73;;;7.83;;
12681;SDS011;6405;59.208;18.216;2023-07-31T05:57:54;8.23;;;7.33;;
12681;SDS011;6405;59.208;18.216;2023-07-31T06:00:19;7.60;;;6.73;;
12681;SDS011;6405;59.208;18.216;2023-07-31T06:02:46;7.43;;;6.73;;
12681;SDS011;6405;59.208;18.216;2023-07-31T06:05:12;6.50;;;5.83;;
12681;SDS011;6405;59.208;18.216;2023-07-31T06:07:38;6.63;;;6.00;;
12681;SDS011;6405;59.208;18.216;2023-07-31T06:10:04;7.63;;;6.90;;
12681;SDS011;6405;59.208;18.216;2023-07-31T06:12:34;8.83;;;7.50;;
12681;SDS011;6405;59.208;18.216;2023-07-31T06:15:00;8.03;;;7.20;;
12681;SDS011;6405;59.208;18.216;2023-07-31T06:17:27;6.87;;;6.17;;
12681;SDS011;6405;59.208;18.216;2023-07-31T06:19:52;7.57;;;6.77;;
12681;SDS011;6405;59.208;18.216;2023-07-31T06:22:18;8.10;;;6.60;;
12681;SDS011;6405;59.208;18.216;2023-07-31T06:24:44;7.70;;;7.00;;
12681;SDS011;6405;59.208;18.216;2023-07-31T06:27:10;7.80;;;7.10;;
12681;SDS011;6405;59.208;18.216;2023-07-31T06:29:36;6.83;;;6.23;;
12681;SDS011;6405;59.208;18.216;2023-07-31T06:32:02;6.07;;;5.47;;
12681;SDS011;6405;59.208;18.216;2023-07-31T06:34:28;7.57;;;5.53;;
12681;SDS011;6405;59.208;18.216;2023-07-31T06:36:55;6.23;;;5.50;;
12681;SDS011;6405;59.208;18.216;2023-07-31T06:39:21;5.57;;;5.07;;
12681;SDS011;6405;59.208;18.216;2023-07-31T06:41:47;5.47;;;4.97;;
12681;SDS011;6405;59.208;18.216;2023-07-31T06:44:13;4.97;;;4.57;;
12681;SDS011;6405;59.208;18.216;2023-07-31T06:46:38;6.33;;;4.83;;
12681;SDS011;6405;59.208;18.216;2023-07-31T06:49:04;5.13;;;4.43;;
12681;SDS011;6405;59.208;18.216;2023-07-31T06:51:30;4.90;;;4.27;;
12681;SDS011;6405;59.208;18.216;2023-07-31T06:53:57;4.20;;;3.80;;
12681;SDS011;6405;59.208;18.216;2023-07-31T06:56:23;4.73;;;2.93;;
12681;SDS011;6405;59.208;18.216;2023-07-31T06:58:49;4.20;;;3.10;;
12681;SDS011;6405;59.208;18.216;2023-07-31T07:01:14;6.03;;;3.10;;
12681;SDS011;6405;59.208;18.216;2023-07-31T07:03:40;5.47;;;3.60;;
12681;SDS011;6405;59.208;18.216;2023-07-31T07:06:06;4.93;;;2.90;;
12681;SDS011;6405;59.208;18.216;2023-07-31T07:08:32;4.37;;;3.40;;
12681;SDS011;6405;59.208;18.216;2023-07-31T07:10:58;3.27;;;2.90;;
12681;SDS011;6405;59.208;18.216;2023-07-31T07:13:23;4.90;;;3.30;;
12681;SDS011;6405;59.208;18.216;2023-07-31T07:15:49;4.63;;;2.83;;
12681;SDS011;6405;59.208;18.216;2023-07-31T07:18:16;3.67;;;2.90;;
12681;SDS011;6405;59.208;18.216;2023-07-31T07:20:52;5.40;;;2.97;;
12681;SDS011;6405;59.208;18.216;2023-07-31T07:23:19;4.63;;;3.33;;
12681;SDS011;6405;59.208;18.216;2023-07-31T07:25:46;4.23;;;2.80;;
12681;SDS011;6405;59.208;18.216;2023-07-31T07:28:12;5.60;;;3.40;;
12681;SDS011;6405;59.208;18.216;2023-07-31T07:30:38;7.10;;;3.10;;
12681;SDS011;6405;59.208;18.216;2023-07-31T07:33:04;3.30;;;2.57;;
12681;SDS011;6405;59.208;18.216;2023-07-31T07:35:32;5.13;;;3.17;;
12681;SDS011;6405;59.208;18.216;2023-07-31T07:37:59;5.77;;;3.33;;
12681;SDS011;6405;59.208;18.216;2023-07-31T07:40:25;4.93;;;3.23;;
12681;SDS011;6405;59.208;18.216;2023-07-31T07:42:51;4.67;;;3.30;;
12681;SDS011;6405;59.208;18.216;2023-07-31T07:45:17;3.77;;;2.90;;
12681;SDS011;6405;59.208;18.216;2023-07-31T07:47:43;7.30;;;2.77;;
12681;SDS011;6405;59.208;18.216;2023-07-31T07:50:08;5.43;;;3.53;;
12681;SDS011;6405;59.208;18.216;2023-07-31T07:52:34;5.80;;;2.90;;
12681;SDS011;6405;59.208;18.216;2023-07-31T07:55:00;5.30;;;3.03;;
12681;SDS011;6405;59.208;18.216;2023-07-31T07:57:26;5.27;;;2.60;;
12681;SDS011;6405;59.208;18.216;2023-07-31T07:59:53;4.13;;;2.87;;
12681;SDS011;6405;59.208;18.216;2023-07-31T08:02:18;3.60;;;2.67;;
12681;SDS011;6405;59.208;18.216;2023-07-31T08:04:44;4.97;;;3.13;;
12681;SDS011;6405;59.208;18.216;2023-07-31T08:07:10;5.37;;;2.90;;
12681;SDS011;6405;59.208;18.216;2023-07-31T08:09:37;7.57;;;3.67;;
12681;SDS011;6405;59.208;18.216;2023-07-31T08:12:03;5.53;;;3.53;;
12681;SDS011;6405;59.208;18.216;2023-07-31T08:14:29;5.53;;;3.20;;
12681;SDS011;6405;59.208;18.216;2023-07-31T08:16:55;8.47;;;3.50;;
12681;SDS011;6405;59.208;18.216;2023-07-31T08:19:21;4.07;;;3.07;;
12681;SDS011;6405;59.208;18.216;2023-07-31T08:21:47;4.67;;;2.80;;
12681;SDS011;6405;59.208;18.216;2023-07-31T08:24:13;5.83;;;2.60;;
12681;SDS011;6405;59.208;18.216;2023-07-31T08:26:38;3.83;;;2.43;;
12681;SDS011;6405;59.208;18.216;2023-07-31T08:29:04;5.43;;;2.47;;
12681;SDS011;6405;59.208;18.216;2023-07-31T08:31:30;5.63;;;3.10;;
12681;SDS011;6405;59.208;18.216;2023-07-31T08:33:56;4.47;;;2.90;;
12681;SDS011;6405;59.208;18.216;2023-07-31T08:36:21;4.47;;;2.73;;
12681;SDS011;6405;59.208;18.216;2023-07-31T08:38:47;4.93;;;2.90;;
12681;SDS011;6405;59.208;18.216;2023-07-31T08:41:15;5.70;;;2.80;;
12681;SDS011;6405;59.208;18.216;2023-07-31T08:43:43;4.50;;;2.70;;
12681;SDS011;6405;59.208;18.216;2023-07-31T08:46:10;5.80;;;3.00;;
12681;SDS011;6405;59.208;18.216;2023-07-31T08:48:37;3.67;;;2.37;;
12681;SDS011;6405;59.208;18.216;2023-07-31T08:51:03;3.33;;;1.93;;
12681;SDS011;6405;59.208;18.216;2023-07-31T08:53:29;3.17;;;2.27;;
12681;SDS011;6405;59.208;18.216;2023-07-31T08:55:56;3.73;;;2.33;;
12681;SDS011;6405;59.208;18.216;2023-07-31T08:58:23;3.43;;;2.40;;
12681;SDS011;6405;59.208;18.216;2023-07-31T09:00:50;3.83;;;2.20;;
12681;SDS011;6405;59.208;18.216;2023-07-31T09:03:17;3.43;;;2.13;;
12681;SDS011;6405;59.208;18.216;2023-07-31T09:05:45;3.23;;;2.50;;
12681;SDS011;6405;59.208;18.216;2023-07-31T09:08:12;4.33;;;2.23;;
12681;SDS011;6405;59.208;18.216;2023-07-31T09:10:42;2.33;;;2.00;;
12681;SDS011;6405;59.208;18.216;2023-07-31T09:13:10;3.93;;;2.30;;
12681;SDS011;6405;59.208;18.216;2023-07-31T09:15:37;3.90;;;2.20;;
12681;SDS011;6405;59.208;18.216;2023-07-31T09:18:04;4.03;;;2.03;;
12681;SDS011;6405;59.208;18.216;2023-07-31T09:20:31;3.13;;;2.00;;
12681;SDS011;6405;59.208;18.216;2023-07-31T09:23:04;4.50;;;2.23;;
12681;SDS011;6405;59.208;18.216;2023-07-31T09:25:35;4.30;;;2.30;;
12681;SDS011;6405;59.208;18.216;2023-07-31T09:28:07;4.77;;;2.40;;
12681;SDS011;6405;59.208;18.216;2023-07-31T09:30:44;6.23;;;2.90;;
12681;SDS011;6405;59.208;18.216;2023-07-31T09:33:15;4.33;;;2.47;;
12681;SDS011;6405;59.208;18.216;2023-07-31T09:35:42;4.17;;;2.07;;
12681;SDS011;6405;59.208;18.216;2023-07-31T09:38:11;3.90;;;2.10;;
12681;SDS011;6405;59.208;18.216;2023-07-31T09:40:48;5.50;;;2.30;;
12681;SDS011;6405;59.208;18.216;2023-07-31T09:43:20;3.80;;;1.77;;
12681;SDS011;6405;59.208;18.216;2023-07-31T09:45:47;4.20;;;2.00;;
12681;SDS011;6405;59.208;18.216;2023-07-31T09:48:16;3.27;;;2.27;;
12681;SDS011;6405;59.208;18.216;2023-07-31T09:50:43;4.40;;;2.40;;
12681;SDS011;6405;59.208;18.216;2023-07-31T09:53:11;4.20;;;2.10;;
12681;SDS011;6405;59.208;18.216;2023-07-31T09:55:38;3.30;;;2.37;;
12681;SDS011;6405;59.208;18.216;2023-07-31T09:58:08;4.47;;;2.20;;
12681;SDS011;6405;59.208;18.216;2023-07-31T10:00:35;3.87;;;2.07;;
12681;SDS011;6405;59.208;18.216;2023-07-31T10:03:04;3.83;;;2.00;;
12681;SDS011;6405;59.208;18.216;2023-07-31T10:05:35;2.43;;;1.60;;
12681;SDS011;6405;59.208;18.216;2023-07-31T10:08:11;3.70;;;1.93;;
12681;SDS011;6405;59.208;18.216;2023-07-31T10:10:42;3.23;;;1.60;;
12681;SDS011;6405;59.208;18.216;2023-07-31T10:13:09;2.60;;;1.77;;
12681;SDS011;6405;59.208;18.216;2023-07-31T10:15:36;3.17;;;1.40;;
12681;SDS011;6405;59.208;18.216;2023-07-31T10:18:03;2.00;;;1.40;;
12681;SDS011;6405;59.208;18.216;2023-07-31T10:20:31;1.67;;;1.50;;
12681;SDS011;6405;59.208;18.216;2023-07-31T10:22:58;2.77;;;1.33;;
12681;SDS011;6405;59.208;18.216;2023-07-31T10:25:26;3.70;;;1.50;;
12681;SDS011;6405;59.208;18.216;2023-07-31T10:27:52;2.60;;;1.30;;
12681;SDS011;6405;59.208;18.216;2023-07-31T10:30:20;2.30;;;1.47;;
12681;SDS011;6405;59.208;18.216;2023-07-31T10:32:50;3.03;;;1.37;;
12681;SDS011;6405;59.208;18.216;2023-07-31T10:35:18;1.90;;;1.60;;
12681;SDS011;6405;59.208;18.216;2023-07-31T10:37:44;2.47;;;1.30;;
12681;SDS011;6405;59.208;18.216;2023-07-31T10:40:15;1.50;;;1.40;;
12681;SDS011;6405;59.208;18.216;2023-07-31T10:43:02;2.83;;;1.70;;
12681;SDS011;6405;59.208;18.216;2023-07-31T10:45:32;1.87;;;1.60;;
12681;SDS011;6405;59.208;18.216;2023-07-31T10:48:12;2.97;;;1.77;;
12681;SDS011;6405;59.208;18.216;2023-07-31T10:50:46;4.40;;;1.87;;
12681;SDS011;6405;59.208;18.216;2023-07-31T10:53:26;1.60;;;1.40;;
12681;SDS011;6405;59.208;18.216;2023-07-31T10:55:57;2.83;;;1.77;;
12681;SDS011;6405;59.208;18.216;2023-07-31T10:58:24;2.20;;;1.63;;
12681;SDS011;6405;59.208;18.216;2023-07-31T11:00:50;1.40;;;1.30;;
12681;SDS011;6405;59.208;18.216;2023-07-31T11:03:24;3.80;;;1.67;;
12681;SDS011;6405;59.208;18.216;2023-07-31T11:06:03;6.17;;;1.53;;
12681;SDS011;6405;59.208;18.216;2023-07-31T11:08:30;2.13;;;1.47;;
12681;SDS011;6405;59.208;18.216;2023-07-31T11:11:07;2.30;;;1.63;;
12681;SDS011;6405;59.208;18.216;2023-07-31T11:13:42;2.27;;;1.57;;
12681;SDS011;6405;59.208;18.216;2023-07-31T11:16:10;2.17;;;1.80;;
12681;SDS011;6405;59.208;18.216;2023-07-31T11:18:41;2.03;;;1.80;;
12681;SDS011;6405;59.208;18.216;2023-07-31T11:21:11;3.20;;;1.60;;
12681;SDS011;6405;59.208;18.216;2023-07-31T11:23:41;2.17;;;1.50;;
12681;SDS011;6405;59.208;18.216;2023-07-31T11:26:11;3.70;;;1.97;;
12681;SDS011;6405;59.208;18.216;2023-07-31T11:28:37;5.27;;;1.80;;
12681;SDS011;6405;59.208;18.216;2023-07-31T11:31:03;1.47;;;1.27;;
12681;SDS011;6405;59.208;18.216;2023-07-31T11:33:30;3.63;;;1.73;;
12681;SDS011;6405;59.208;18.216;2023-07-31T11:35:55;2.97;;;1.60;;
12681;SDS011;6405;59.208;18.216;2023-07-31T11:38:31;2.53;;;1.80;;
12681;SDS011;6405;59.208;18.216;2023-07-31T11:41:01;2.67;;;1.77;;
12681;SDS011;6405;59.208;18.216;2023-07-31T11:43:29;2.87;;;1.70;;
12681;SDS011;6405;59.208;18.216;2023-07-31T11:45:57;3.60;;;1.90;;
12681;SDS011;6405;59.208;18.216;2023-07-31T11:48:33;2.43;;;1.70;;
12681;SDS011;6405;59.208;18.216;2023-07-31T11:51:02;1.83;;;1.43;;
12681;SDS011;6405;59.208;18.216;2023-07-31T11:56:11;2.20;;;1.60;;
12681;SDS011;6405;59.208;18.216;2023-07-31T11:58:39;2.57;;;1.07;;
12681;SDS011;6405;59.208;18.216;2023-07-31T12:01:06;3.20;;;1.77;;
12681;SDS011;6405;59.208;18.216;2023-07-31T12:03:33;3.17;;;1.87;;
12681;SDS011;6405;59.208;18.216;2023-07-31T12:05:59;1.57;;;1.47;;
12681;SDS011;6405;59.208;18.216;2023-07-31T12:08:25;1.90;;;1.53;;
12681;SDS011;6405;59.208;18.216;2023-07-31T12:10:52;2.40;;;1.40;;
12681;SDS011;6405;59.208;18.216;2023-07-31T12:13:25;2.27;;;1.43;;
12681;SDS011;6405;59.208;18.216;2023-07-31T12:15:55;2.43;;;1.60;;
12681;SDS011;6405;59.208;18.216;2023-07-31T12:18:23;2.33;;;1.60;;
12681;SDS011;6405;59.208;18.216;2023-07-31T12:20:55;3.17;;;1.30;;
12681;SDS011;6405;59.208;18.216;2023-07-31T12:23:26;2.20;;;1.67;;
12681;SDS011;6405;59.208;18.216;2023-07-31T12:28:30;4.63;;;1.67;;
12681;SDS011;6405;59.208;18.216;2023-07-31T12:31:05;1.77;;;1.57;;
12681;SDS011;6405;59.208;18.216;2023-07-31T12:33:34;2.70;;;1.60;;
12681;SDS011;6405;59.208;18.216;2023-07-31T12:36:01;3.20;;;1.50;;
12681;SDS011;6405;59.208;18.216;2023-07-31T12:38:29;2.00;;;1.50;;
12681;SDS011;6405;59.208;18.216;2023-07-31T12:40:55;2.57;;;1.70;;
12681;SDS011;6405;59.208;18.216;2023-07-31T12:43:21;2.73;;;2.00;;
12681;SDS011;6405;59.208;18.216;2023-07-31T12:45:46;3.57;;;1.40;;
12681;SDS011;6405;59.208;18.216;2023-07-31T12:48:13;2.50;;;1.60;;
12681;SDS011;6405;59.208;18.216;2023-07-31T12:50:39;2.00;;;1.57;;
12681;SDS011;6405;59.208;18.216;2023-07-31T12:53:05;3.90;;;1.90;;
12681;SDS011;6405;59.208;18.216;2023-07-31T12:55:31;2.60;;;1.43;;
12681;SDS011;6405;59.208;18.216;2023-07-31T12:57:59;5.73;;;1.80;;
12681;SDS011;6405;59.208;18.216;2023-07-31T13:00:26;3.67;;;2.00;;
12681;SDS011;6405;59.208;18.216;2023-07-31T13:02:52;3.43;;;1.60;;
12681;SDS011;6405;59.208;18.216;2023-07-31T13:05:18;3.30;;;2.00;;
12681;SDS011;6405;59.208;18.216;2023-07-31T13:07:47;3.87;;;1.90;;
12681;SDS011;6405;59.208;18.216;2023-07-31T13:10:13;3.03;;;2.07;;
12681;SDS011;6405;59.208;18.216;2023-07-31T13:12:39;3.17;;;2.20;;
12681;SDS011;6405;59.208;18.216;2023-07-31T13:15:05;2.40;;;1.70;;
12681;SDS011;6405;59.208;18.216;2023-07-31T13:17:32;3.03;;;1.87;;
12681;SDS011;6405;59.208;18.216;2023-07-31T13:19:58;2.77;;;1.60;;
12681;SDS011;6405;59.208;18.216;2023-07-31T13:22:24;3.87;;;1.77;;
12681;SDS011;6405;59.208;18.216;2023-07-31T13:24:50;4.20;;;1.90;;
12681;SDS011;6405;59.208;18.216;2023-07-31T13:27:16;3.93;;;1.80;;
12681;SDS011;6405;59.208;18.216;2023-07-31T13:29:44;3.20;;;1.70;;
12681;SDS011;6405;59.208;18.216;2023-07-31T13:32:14;4.53;;;1.67;;
12681;SDS011;6405;59.208;18.216;2023-07-31T13:34:40;2.57;;;1.37;;
12681;SDS011;6405;59.208;18.216;2023-07-31T13:37:06;2.57;;;1.70;;
12681;SDS011;6405;59.208;18.216;2023-07-31T13:39:32;4.07;;;1.70;;
12681;SDS011;6405;59.208;18.216;2023-07-31T13:42:02;4.50;;;1.47;;
12681;SDS011;6405;59.208;18.216;2023-07-31T13:44:29;2.07;;;1.60;;
12681;SDS011;6405;59.208;18.216;2023-07-31T13:46:54;4.37;;;1.70;;
12681;SDS011;6405;59.208;18.216;2023-07-31T13:49:20;2.77;;;1.40;;
12681;SDS011;6405;59.208;18.216;2023-07-31T13:51:46;2.27;;;1.50;;
12681;SDS011;6405;59.208;18.216;2023-07-31T13:54:12;2.93;;;1.70;;
12681;SDS011;6405;59.208;18.216;2023-07-31T13:56:38;3.10;;;1.70;;
12681;SDS011;6405;59.208;18.216;2023-07-31T13:59:04;2.37;;;1.80;;
12681;SDS011;6405;59.208;18.216;2023-07-31T14:01:30;2.20;;;1.70;;
12681;SDS011;6405;59.208;18.216;2023-07-31T14:03:56;2.57;;;1.93;;
12681;SDS011;6405;59.208;18.216;2023-07-31T14:06:21;2.70;;;2.10;;
12681;SDS011;6405;59.208;18.216;2023-07-31T14:08:47;3.57;;;1.90;;
12681;SDS011;6405;59.208;18.216;2023-07-31T14:11:13;4.70;;;2.00;;
12681;SDS011;6405;59.208;18.216;2023-07-31T14:13:39;3.50;;;1.90;;
12681;SDS011;6405;59.208;18.216;2023-07-31T14:16:05;3.40;;;2.23;;
12681;SDS011;6405;59.208;18.216;2023-07-31T14:18:31;4.70;;;2.00;;
12681;SDS011;6405;59.208;18.216;2023-07-31T14:20:56;4.77;;;2.00;;
12681;SDS011;6405;59.208;18.216;2023-07-31T14:23:22;3.60;;;1.97;;
12681;SDS011;6405;59.208;18.216;2023-07-31T14:25:48;2.53;;;2.10;;
12681;SDS011;6405;59.208;18.216;2023-07-31T14:28:14;3.23;;;2.20;;
12681;SDS011;6405;59.208;18.216;2023-07-31T14:30:39;3.90;;;1.97;;
12681;SDS011;6405;59.208;18.216;2023-07-31T14:33:05;3.17;;;1.87;;
12681;SDS011;6405;59.208;18.216;2023-07-31T14:35:31;2.37;;;2.17;;
12681;SDS011;6405;59.208;18.216;2023-07-31T14:37:57;4.03;;;2.30;;
12681;SDS011;6405;59.208;18.216;2023-07-31T14:40:23;4.97;;;2.47;;
12681;SDS011;6405;59.208;18.216;2023-07-31T14:42:49;4.80;;;2.50;;
12681;SDS011;6405;59.208;18.216;2023-07-31T14:45:15;2.90;;;2.13;;
12681;SDS011;6405;59.208;18.216;2023-07-31T14:47:40;5.00;;;2.10;;
12681;SDS011;6405;59.208;18.216;2023-07-31T14:50:06;3.03;;;2.37;;
12681;SDS011;6405;59.208;18.216;2023-07-31T14:52:32;2.53;;;2.07;;